sensor_id;sensor_type;location;lat;lon;timestamp;P1;durP1;ratioP1;P2;durP2;ratioP2
47796;SDS011;33558;50.922;14.068;2023-04-07T00:01:23;9.20;;;5.43;;
47796;SDS011;33558;50.922;14.068;2023-04-07T00:03:49;8.53;;;5.20;;
47796;SDS011;33558;50.922;14.068;2023-04-07T00:06:16;7.13;;;4.73;;
47796;SDS011;33558;50.922;14.068;2023-04-07T00:08:43;9.53;;;5.50;;
47796;SDS011;33558;50.922;14.068;2023-04-07T00:11:09;6.40;;;4.47;;
47796;SDS011;33558;50.922;14.068;2023-04-07T00:13:36;7.23;;;4.70;;
47796;SDS011;33558;50.922;14.068;2023-04-07T00:16:03;6.47;;;4.43;;
47796;SDS011;33558;50.922;14.068;2023-04-07T00:18:31;6.47;;;4.47;;
47796;SDS011;33558;50.922;14.068;2023-04-07T00:20:58;6.33;;;4.73;;
47796;SDS011;33558;50.922;14.068;2023-04-07T00:23:24;8.63;;;5.17;;
47796;SDS011;33558;50.922;14.068;2023-04-07T00:25:51;7.47;;;4.23;;
47796;SDS011;33558;50.922;14.068;2023-04-07T00:28:18;6.63;;;4.43;;
47796;SDS011;33558;50.922;14.068;2023-04-07T00:30:44;7.27;;;4.57;;
47796;SDS011;33558;50.922;14.068;2023-04-07T00:33:11;7.43;;;4.57;;
47796;SDS011;33558;50.922;14.068;2023-04-07T00:35:39;6.70;;;4.70;;
47796;SDS011;33558;50.922;14.068;2023-04-07T00:38:06;6.97;;;5.17;;
47796;SDS011;33558;50.922;14.068;2023-04-07T00:40:32;7.57;;;4.90;;
47796;SDS011;33558;50.922;14.068;2023-04-07T00:42:59;5.80;;;4.50;;
47796;SDS011;33558;50.922;14.068;2023-04-07T00:45:26;6.37;;;4.40;;
47796;SDS011;33558;50.922;14.068;2023-04-07T00:47:53;6.63;;;4.37;;
47796;SDS011;33558;50.922;14.068;2023-04-07T00:50:20;6.93;;;4.30;;
47796;SDS011;33558;50.922;14.068;2023-04-07T00:52:48;8.20;;;4.70;;
47796;SDS011;33558;50.922;14.068;2023-04-07T00:55:15;7.27;;;4.00;;
47796;SDS011;33558;50.922;14.068;2023-04-07T00:57:42;6.03;;;4.10;;
47796;SDS011;33558;50.922;14.068;2023-04-07T01:00:11;6.07;;;4.13;;
47796;SDS011;33558;50.922;14.068;2023-04-07T01:02:40;5.80;;;3.90;;
47796;SDS011;33558;50.922;14.068;2023-04-07T01:05:09;7.10;;;4.60;;
47796;SDS011;33558;50.922;14.068;2023-04-07T01:07:38;7.17;;;4.80;;
47796;SDS011;33558;50.922;14.068;2023-04-07T01:10:14;6.83;;;5.00;;
47796;SDS011;33558;50.922;14.068;2023-04-07T01:13:00;6.30;;;4.30;;
47796;SDS011;33558;50.922;14.068;2023-04-07T01:15:29;6.10;;;4.10;;
47796;SDS011;33558;50.922;14.068;2023-04-07T01:17:58;5.93;;;3.60;;
47796;SDS011;33558;50.922;14.068;2023-04-07T01:20:26;7.80;;;4.60;;
47796;SDS011;33558;50.922;14.068;2023-04-07T01:23:00;7.47;;;5.17;;
47796;SDS011;33558;50.922;14.068;2023-04-07T01:25:37;8.07;;;4.37;;
47796;SDS011;33558;50.922;14.068;2023-04-07T01:28:27;6.47;;;4.30;;
47796;SDS011;33558;50.922;14.068;2023-04-07T01:31:08;7.60;;;4.67;;
47796;SDS011;33558;50.922;14.068;2023-04-07T01:33:36;6.90;;;4.27;;
47796;SDS011;33558;50.922;14.068;2023-04-07T01:36:03;7.60;;;5.20;;
47796;SDS011;33558;50.922;14.068;2023-04-07T01:38:30;5.87;;;4.57;;
47796;SDS011;33558;50.922;14.068;2023-04-07T01:40:57;6.93;;;4.70;;
47796;SDS011;33558;50.922;14.068;2023-04-07T01:43:24;7.73;;;4.50;;
47796;SDS011;33558;50.922;14.068;2023-04-07T01:45:52;8.77;;;4.70;;
47796;SDS011;33558;50.922;14.068;2023-04-07T01:48:21;7.00;;;4.37;;
47796;SDS011;33558;50.922;14.068;2023-04-07T01:50:48;7.17;;;4.57;;
47796;SDS011;33558;50.922;14.068;2023-04-07T01:53:14;6.97;;;4.73;;
47796;SDS011;33558;50.922;14.068;2023-04-07T01:55:42;8.20;;;4.80;;
47796;SDS011;33558;50.922;14.068;2023-04-07T01:58:09;8.30;;;4.60;;
47796;SDS011;33558;50.922;14.068;2023-04-07T02:00:39;7.30;;;4.83;;
47796;SDS011;33558;50.922;14.068;2023-04-07T02:03:12;6.10;;;4.93;;
47796;SDS011;33558;50.922;14.068;2023-04-07T02:05:47;13.53;;;6.03;;
47796;SDS011;33558;50.922;14.068;2023-04-07T02:08:16;8.30;;;4.47;;
47796;SDS011;33558;50.922;14.068;2023-04-07T02:10:45;7.00;;;4.20;;
47796;SDS011;33558;50.922;14.068;2023-04-07T02:13:15;6.23;;;3.77;;
47796;SDS011;33558;50.922;14.068;2023-04-07T02:15:42;8.93;;;4.43;;
47796;SDS011;33558;50.922;14.068;2023-04-07T02:18:10;7.53;;;3.83;;
47796;SDS011;33558;50.922;14.068;2023-04-07T02:20:38;7.93;;;4.20;;
47796;SDS011;33558;50.922;14.068;2023-04-07T02:23:07;6.10;;;4.23;;
47796;SDS011;33558;50.922;14.068;2023-04-07T02:25:35;6.07;;;4.00;;
47796;SDS011;33558;50.922;14.068;2023-04-07T02:28:03;6.60;;;4.80;;
47796;SDS011;33558;50.922;14.068;2023-04-07T02:30:30;9.63;;;4.40;;
47796;SDS011;33558;50.922;14.068;2023-04-07T02:32:58;7.83;;;4.37;;
47796;SDS011;33558;50.922;14.068;2023-04-07T02:35:25;6.30;;;3.90;;
47796;SDS011;33558;50.922;14.068;2023-04-07T02:37:52;6.03;;;3.93;;
47796;SDS011;33558;50.922;14.068;2023-04-07T02:40:20;5.83;;;4.10;;
47796;SDS011;33558;50.922;14.068;2023-04-07T02:42:46;7.33;;;5.30;;
47796;SDS011;33558;50.922;14.068;2023-04-07T02:45:13;8.10;;;4.77;;
47796;SDS011;33558;50.922;14.068;2023-04-07T02:47:40;6.30;;;4.47;;
47796;SDS011;33558;50.922;14.068;2023-04-07T02:50:07;8.13;;;4.70;;
47796;SDS011;33558;50.922;14.068;2023-04-07T02:52:34;8.97;;;3.77;;
47796;SDS011;33558;50.922;14.068;2023-04-07T02:55:07;6.10;;;3.93;;
47796;SDS011;33558;50.922;14.068;2023-04-07T02:57:36;7.00;;;3.90;;
47796;SDS011;33558;50.922;14.068;2023-04-07T03:00:08;5.37;;;3.93;;
47796;SDS011;33558;50.922;14.068;2023-04-07T03:02:54;6.57;;;4.50;;
47796;SDS011;33558;50.922;14.068;2023-04-07T03:05:21;8.60;;;4.73;;
47796;SDS011;33558;50.922;14.068;2023-04-07T03:07:47;8.23;;;4.70;;
47796;SDS011;33558;50.922;14.068;2023-04-07T03:10:14;7.30;;;4.57;;
47796;SDS011;33558;50.922;14.068;2023-04-07T03:12:43;8.23;;;4.53;;
47796;SDS011;33558;50.922;14.068;2023-04-07T03:15:10;6.67;;;4.50;;
47796;SDS011;33558;50.922;14.068;2023-04-07T03:17:39;9.40;;;4.60;;
47796;SDS011;33558;50.922;14.068;2023-04-07T03:20:06;7.50;;;4.50;;
47796;SDS011;33558;50.922;14.068;2023-04-07T03:22:35;7.13;;;4.40;;
47796;SDS011;33558;50.922;14.068;2023-04-07T03:25:06;8.03;;;4.50;;
47796;SDS011;33558;50.922;14.068;2023-04-07T03:27:33;7.83;;;4.70;;
47796;SDS011;33558;50.922;14.068;2023-04-07T03:30:02;8.90;;;4.27;;
47796;SDS011;33558;50.922;14.068;2023-04-07T03:32:29;5.90;;;4.17;;
47796;SDS011;33558;50.922;14.068;2023-04-07T03:34:56;7.10;;;4.30;;
47796;SDS011;33558;50.922;14.068;2023-04-07T03:37:22;7.70;;;4.30;;
47796;SDS011;33558;50.922;14.068;2023-04-07T03:39:50;8.90;;;3.97;;
47796;SDS011;33558;50.922;14.068;2023-04-07T03:42:25;7.78;;;4.45;;
47796;SDS011;33558;50.922;14.068;2023-04-07T03:44:59;7.10;;;4.30;;
47796;SDS011;33558;50.922;14.068;2023-04-07T03:47:27;5.30;;;3.87;;
47796;SDS011;33558;50.922;14.068;2023-04-07T03:49:58;8.20;;;4.03;;
47796;SDS011;33558;50.922;14.068;2023-04-07T03:52:27;8.00;;;4.87;;
47796;SDS011;33558;50.922;14.068;2023-04-07T03:55:02;5.67;;;3.77;;
47796;SDS011;33558;50.922;14.068;2023-04-07T03:57:30;6.43;;;4.33;;
47796;SDS011;33558;50.922;14.068;2023-04-07T03:59:57;6.53;;;4.67;;
47796;SDS011;33558;50.922;14.068;2023-04-07T04:02:24;6.87;;;4.67;;
47796;SDS011;33558;50.922;14.068;2023-04-07T04:04:54;10.37;;;4.87;;
47796;SDS011;33558;50.922;14.068;2023-04-07T04:07:22;11.20;;;5.90;;
47796;SDS011;33558;50.922;14.068;2023-04-07T04:09:52;8.40;;;4.60;;
47796;SDS011;33558;50.922;14.068;2023-04-07T04:12:19;7.40;;;4.23;;
47796;SDS011;33558;50.922;14.068;2023-04-07T04:15:02;7.67;;;4.67;;
47796;SDS011;33558;50.922;14.068;2023-04-07T04:17:30;9.27;;;5.10;;
47796;SDS011;33558;50.922;14.068;2023-04-07T04:19:58;8.80;;;4.97;;
47796;SDS011;33558;50.922;14.068;2023-04-07T04:22:38;7.17;;;4.23;;
47796;SDS011;33558;50.922;14.068;2023-04-07T04:25:05;7.83;;;4.07;;
47796;SDS011;33558;50.922;14.068;2023-04-07T04:27:33;7.57;;;4.93;;
47796;SDS011;33558;50.922;14.068;2023-04-07T04:30:09;6.80;;;4.13;;
47796;SDS011;33558;50.922;14.068;2023-04-07T04:32:59;9.00;;;5.00;;
47796;SDS011;33558;50.922;14.068;2023-04-07T04:35:48;7.27;;;5.10;;
47796;SDS011;33558;50.922;14.068;2023-04-07T04:38:18;7.30;;;5.23;;
47796;SDS011;33558;50.922;14.068;2023-04-07T04:40:53;10.00;;;5.60;;
47796;SDS011;33558;50.922;14.068;2023-04-07T04:43:25;9.03;;;5.27;;
47796;SDS011;33558;50.922;14.068;2023-04-07T04:45:52;8.93;;;5.27;;
47796;SDS011;33558;50.922;14.068;2023-04-07T04:48:23;10.50;;;6.00;;
47796;SDS011;33558;50.922;14.068;2023-04-07T04:50:51;6.90;;;5.10;;
47796;SDS011;33558;50.922;14.068;2023-04-07T04:53:19;9.13;;;5.13;;
47796;SDS011;33558;50.922;14.068;2023-04-07T04:55:57;8.93;;;5.47;;
47796;SDS011;33558;50.922;14.068;2023-04-07T04:58:43;8.10;;;4.95;;
47796;SDS011;33558;50.922;14.068;2023-04-07T05:01:14;6.03;;;4.47;;
47796;SDS011;33558;50.922;14.068;2023-04-07T05:03:50;9.45;;;5.47;;
47796;SDS011;33558;50.922;14.068;2023-04-07T05:06:22;7.07;;;4.83;;
47796;SDS011;33558;50.922;14.068;2023-04-07T05:08:51;9.43;;;5.13;;
47796;SDS011;33558;50.922;14.068;2023-04-07T05:11:21;10.00;;;5.87;;
47796;SDS011;33558;50.922;14.068;2023-04-07T05:13:51;10.13;;;4.90;;
47796;SDS011;33558;50.922;14.068;2023-04-07T05:16:18;9.73;;;5.10;;
47796;SDS011;33558;50.922;14.068;2023-04-07T05:18:45;10.60;;;5.80;;
47796;SDS011;33558;50.922;14.068;2023-04-07T05:21:13;7.97;;;5.27;;
47796;SDS011;33558;50.922;14.068;2023-04-07T05:23:41;7.47;;;4.73;;
47796;SDS011;33558;50.922;14.068;2023-04-07T05:26:09;9.97;;;5.20;;
47796;SDS011;33558;50.922;14.068;2023-04-07T05:28:36;8.70;;;5.60;;
47796;SDS011;33558;50.922;14.068;2023-04-07T05:31:10;9.70;;;5.33;;
47796;SDS011;33558;50.922;14.068;2023-04-07T05:33:37;10.00;;;5.90;;
47796;SDS011;33558;50.922;14.068;2023-04-07T05:36:03;8.70;;;5.73;;
47796;SDS011;33558;50.922;14.068;2023-04-07T05:38:31;10.07;;;5.67;;
47796;SDS011;33558;50.922;14.068;2023-04-07T05:41:07;10.27;;;5.53;;
47796;SDS011;33558;50.922;14.068;2023-04-07T05:43:35;9.67;;;5.30;;
47796;SDS011;33558;50.922;14.068;2023-04-07T05:46:03;9.90;;;6.03;;
47796;SDS011;33558;50.922;14.068;2023-04-07T05:48:33;11.47;;;6.50;;
47796;SDS011;33558;50.922;14.068;2023-04-07T05:51:00;12.83;;;7.03;;
47796;SDS011;33558;50.922;14.068;2023-04-07T05:53:26;12.97;;;7.20;;
47796;SDS011;33558;50.922;14.068;2023-04-07T05:55:53;13.97;;;7.67;;
47796;SDS011;33558;50.922;14.068;2023-04-07T05:58:41;12.90;;;6.53;;
47796;SDS011;33558;50.922;14.068;2023-04-07T06:01:09;13.50;;;7.83;;
47796;SDS011;33558;50.922;14.068;2023-04-07T06:03:36;10.60;;;6.70;;
47796;SDS011;33558;50.922;14.068;2023-04-07T06:06:13;13.90;;;7.40;;
47796;SDS011;33558;50.922;14.068;2023-04-07T06:08:40;11.43;;;6.73;;
47796;SDS011;33558;50.922;14.068;2023-04-07T06:11:07;13.13;;;6.93;;
47796;SDS011;33558;50.922;14.068;2023-04-07T06:13:33;14.80;;;6.83;;
47796;SDS011;33558;50.922;14.068;2023-04-07T06:16:02;11.83;;;6.77;;
47796;SDS011;33558;50.922;14.068;2023-04-07T06:18:30;9.47;;;6.17;;
47796;SDS011;33558;50.922;14.068;2023-04-07T06:20:57;10.17;;;6.33;;
47796;SDS011;33558;50.922;14.068;2023-04-07T06:23:24;11.30;;;6.83;;
47796;SDS011;33558;50.922;14.068;2023-04-07T06:25:51;9.83;;;6.23;;
47796;SDS011;33558;50.922;14.068;2023-04-07T06:28:18;11.57;;;6.73;;
47796;SDS011;33558;50.922;14.068;2023-04-07T06:30:45;9.43;;;6.10;;
47796;SDS011;33558;50.922;14.068;2023-04-07T06:33:14;8.70;;;6.07;;
47796;SDS011;33558;50.922;14.068;2023-04-07T06:35:41;10.77;;;6.90;;
47796;SDS011;33558;50.922;14.068;2023-04-07T06:38:08;9.67;;;6.70;;
47796;SDS011;33558;50.922;14.068;2023-04-07T06:40:35;9.80;;;5.90;;
47796;SDS011;33558;50.922;14.068;2023-04-07T06:43:02;9.00;;;6.37;;
47796;SDS011;33558;50.922;14.068;2023-04-07T06:45:38;8.73;;;6.07;;
47796;SDS011;33558;50.922;14.068;2023-04-07T06:48:05;8.03;;;5.43;;
47796;SDS011;33558;50.922;14.068;2023-04-07T06:50:33;10.77;;;6.40;;
47796;SDS011;33558;50.922;14.068;2023-04-07T06:53:00;10.63;;;7.03;;
47796;SDS011;33558;50.922;14.068;2023-04-07T06:55:26;8.83;;;5.93;;
47796;SDS011;33558;50.922;14.068;2023-04-07T06:57:53;8.87;;;6.10;;
47796;SDS011;33558;50.922;14.068;2023-04-07T07:00:20;9.17;;;6.20;;
47796;SDS011;33558;50.922;14.068;2023-04-07T07:02:48;8.97;;;6.47;;
47796;SDS011;33558;50.922;14.068;2023-04-07T07:05:15;9.83;;;6.40;;
47796;SDS011;33558;50.922;14.068;2023-04-07T07:07:43;10.30;;;7.37;;
47796;SDS011;33558;50.922;14.068;2023-04-07T07:10:10;10.43;;;6.27;;
47796;SDS011;33558;50.922;14.068;2023-04-07T07:12:38;9.83;;;6.40;;
47796;SDS011;33558;50.922;14.068;2023-04-07T07:15:06;11.93;;;6.63;;
47796;SDS011;33558;50.922;14.068;2023-04-07T07:17:34;8.63;;;6.23;;
47796;SDS011;33558;50.922;14.068;2023-04-07T07:20:02;8.47;;;5.90;;
47796;SDS011;33558;50.922;14.068;2023-04-07T07:22:31;8.87;;;6.50;;
47796;SDS011;33558;50.922;14.068;2023-04-07T07:25:00;9.47;;;7.00;;
47796;SDS011;33558;50.922;14.068;2023-04-07T07:27:28;9.93;;;6.80;;
47796;SDS011;33558;50.922;14.068;2023-04-07T07:29:56;10.47;;;6.67;;
47796;SDS011;33558;50.922;14.068;2023-04-07T07:32:24;11.73;;;7.20;;
47796;SDS011;33558;50.922;14.068;2023-04-07T07:34:51;12.33;;;6.87;;
47796;SDS011;33558;50.922;14.068;2023-04-07T07:37:19;10.00;;;6.57;;
47796;SDS011;33558;50.922;14.068;2023-04-07T07:39:47;9.13;;;5.97;;
47796;SDS011;33558;50.922;14.068;2023-04-07T07:42:17;10.93;;;7.17;;
47796;SDS011;33558;50.922;14.068;2023-04-07T07:44:44;13.90;;;9.07;;
47796;SDS011;33558;50.922;14.068;2023-04-07T07:47:12;13.30;;;8.10;;
47796;SDS011;33558;50.922;14.068;2023-04-07T07:49:40;10.23;;;6.33;;
47796;SDS011;33558;50.922;14.068;2023-04-07T07:52:08;12.33;;;7.07;;
47796;SDS011;33558;50.922;14.068;2023-04-07T07:54:36;12.20;;;7.17;;
47796;SDS011;33558;50.922;14.068;2023-04-07T07:57:04;10.37;;;6.97;;
47796;SDS011;33558;50.922;14.068;2023-04-07T07:59:34;8.83;;;6.70;;
47796;SDS011;33558;50.922;14.068;2023-04-07T08:02:02;9.53;;;6.97;;
47796;SDS011;33558;50.922;14.068;2023-04-07T08:04:30;11.13;;;6.43;;
47796;SDS011;33558;50.922;14.068;2023-04-07T08:06:57;12.87;;;5.93;;
47796;SDS011;33558;50.922;14.068;2023-04-07T08:09:25;11.83;;;6.90;;
47796;SDS011;33558;50.922;14.068;2023-04-07T08:11:53;8.70;;;5.87;;
47796;SDS011;33558;50.922;14.068;2023-04-07T08:14:21;10.17;;;7.00;;
47796;SDS011;33558;50.922;14.068;2023-04-07T08:16:51;11.77;;;6.83;;
47796;SDS011;33558;50.922;14.068;2023-04-07T08:19:19;11.13;;;6.10;;
47796;SDS011;33558;50.922;14.068;2023-04-07T08:21:47;10.07;;;6.20;;
47796;SDS011;33558;50.922;14.068;2023-04-07T08:24:15;9.53;;;5.77;;
47796;SDS011;33558;50.922;14.068;2023-04-07T08:26:43;10.33;;;6.30;;
47796;SDS011;33558;50.922;14.068;2023-04-07T08:29:11;10.63;;;6.50;;
47796;SDS011;33558;50.922;14.068;2023-04-07T08:31:39;10.23;;;6.73;;
47796;SDS011;33558;50.922;14.068;2023-04-07T08:34:09;9.90;;;5.93;;
47796;SDS011;33558;50.922;14.068;2023-04-07T08:36:38;11.07;;;6.53;;
47796;SDS011;33558;50.922;14.068;2023-04-07T08:39:05;9.40;;;6.10;;
47796;SDS011;33558;50.922;14.068;2023-04-07T08:41:36;9.80;;;6.27;;
47796;SDS011;33558;50.922;14.068;2023-04-07T08:44:04;9.43;;;5.87;;
47796;SDS011;33558;50.922;14.068;2023-04-07T08:46:34;9.50;;;6.00;;
47796;SDS011;33558;50.922;14.068;2023-04-07T08:49:02;9.27;;;5.83;;
47796;SDS011;33558;50.922;14.068;2023-04-07T08:51:32;11.10;;;6.57;;
47796;SDS011;33558;50.922;14.068;2023-04-07T08:54:02;10.67;;;5.93;;
47796;SDS011;33558;50.922;14.068;2023-04-07T08:56:32;10.67;;;7.10;;
47796;SDS011;33558;50.922;14.068;2023-04-07T08:58:59;10.00;;;6.90;;
47796;SDS011;33558;50.922;14.068;2023-04-07T09:01:28;10.63;;;6.50;;
47796;SDS011;33558;50.922;14.068;2023-04-07T09:03:56;8.97;;;6.03;;
47796;SDS011;33558;50.922;14.068;2023-04-07T09:06:24;11.43;;;6.50;;
47796;SDS011;33558;50.922;14.068;2023-04-07T09:08:53;8.97;;;6.13;;
47796;SDS011;33558;50.922;14.068;2023-04-07T09:11:21;10.33;;;6.80;;
47796;SDS011;33558;50.922;14.068;2023-04-07T09:13:49;11.17;;;7.23;;
47796;SDS011;33558;50.922;14.068;2023-04-07T09:16:16;13.13;;;7.03;;
47796;SDS011;33558;50.922;14.068;2023-04-07T09:18:45;9.77;;;5.90;;
47796;SDS011;33558;50.922;14.068;2023-04-07T09:21:13;9.73;;;6.50;;
47796;SDS011;33558;50.922;14.068;2023-04-07T09:23:41;12.53;;;7.20;;
47796;SDS011;33558;50.922;14.068;2023-04-07T09:26:20;11.47;;;6.77;;
47796;SDS011;33558;50.922;14.068;2023-04-07T09:28:50;9.80;;;6.57;;
47796;SDS011;33558;50.922;14.068;2023-04-07T09:31:19;10.07;;;6.93;;
47796;SDS011;33558;50.922;14.068;2023-04-07T09:33:47;11.90;;;7.60;;
47796;SDS011;33558;50.922;14.068;2023-04-07T09:36:15;10.23;;;7.30;;
47796;SDS011;33558;50.922;14.068;2023-04-07T09:38:44;9.97;;;7.00;;
47796;SDS011;33558;50.922;14.068;2023-04-07T09:41:12;11.13;;;6.97;;
47796;SDS011;33558;50.922;14.068;2023-04-07T09:43:42;12.00;;;7.00;;
47796;SDS011;33558;50.922;14.068;2023-04-07T09:46:11;9.27;;;6.77;;
47796;SDS011;33558;50.922;14.068;2023-04-07T09:48:40;13.63;;;9.13;;
47796;SDS011;33558;50.922;14.068;2023-04-07T09:51:09;15.13;;;7.90;;
47796;SDS011;33558;50.922;14.068;2023-04-07T09:53:42;13.20;;;8.03;;
47796;SDS011;33558;50.922;14.068;2023-04-07T09:56:12;16.90;;;12.60;;
47796;SDS011;33558;50.922;14.068;2023-04-07T09:58:43;11.43;;;8.60;;
47796;SDS011;33558;50.922;14.068;2023-04-07T10:01:12;13.87;;;8.53;;
47796;SDS011;33558;50.922;14.068;2023-04-07T10:03:43;13.70;;;8.53;;
47796;SDS011;33558;50.922;14.068;2023-04-07T10:06:11;12.87;;;8.83;;
47796;SDS011;33558;50.922;14.068;2023-04-07T10:08:38;13.57;;;8.37;;
47796;SDS011;33558;50.922;14.068;2023-04-07T10:11:06;10.33;;;6.83;;
47796;SDS011;33558;50.922;14.068;2023-04-07T10:13:34;10.73;;;7.13;;
47796;SDS011;33558;50.922;14.068;2023-04-07T10:16:03;10.90;;;7.50;;
47796;SDS011;33558;50.922;14.068;2023-04-07T10:18:32;10.73;;;6.90;;
47796;SDS011;33558;50.922;14.068;2023-04-07T10:21:00;9.47;;;6.97;;
47796;SDS011;33558;50.922;14.068;2023-04-07T10:23:33;8.17;;;6.20;;
47796;SDS011;33558;50.922;14.068;2023-04-07T10:26:08;11.07;;;6.30;;
47796;SDS011;33558;50.922;14.068;2023-04-07T10:28:36;9.93;;;6.33;;
47796;SDS011;33558;50.922;14.068;2023-04-07T10:31:05;9.53;;;5.93;;
47796;SDS011;33558;50.922;14.068;2023-04-07T10:33:43;11.27;;;6.53;;
47796;SDS011;33558;50.922;14.068;2023-04-07T10:36:10;8.40;;;6.37;;
47796;SDS011;33558;50.922;14.068;2023-04-07T10:38:37;9.67;;;6.30;;
47796;SDS011;33558;50.922;14.068;2023-04-07T10:43:58;10.50;;;6.20;;
47796;SDS011;33558;50.922;14.068;2023-04-07T10:46:26;8.03;;;5.70;;
47796;SDS011;33558;50.922;14.068;2023-04-07T10:49:28;9.93;;;6.73;;
47796;SDS011;33558;50.922;14.068;2023-04-07T10:54:56;9.27;;;6.23;;
47796;SDS011;33558;50.922;14.068;2023-04-07T10:58:17;10.33;;;6.87;;
47796;SDS011;33558;50.922;14.068;2023-04-07T11:03:56;8.23;;;6.57;;
47796;SDS011;33558;50.922;14.068;2023-04-07T11:06:24;8.98;;;6.78;;
47796;SDS011;33558;50.922;14.068;2023-04-07T11:08:52;10.67;;;6.87;;
47796;SDS011;33558;50.922;14.068;2023-04-07T11:11:33;9.53;;;7.00;;
47796;SDS011;33558;50.922;14.068;2023-04-07T11:14:02;8.57;;;6.37;;
47796;SDS011;33558;50.922;14.068;2023-04-07T11:16:36;11.13;;;6.80;;
47796;SDS011;33558;50.922;14.068;2023-04-07T11:19:04;11.30;;;7.35;;
47796;SDS011;33558;50.922;14.068;2023-04-07T11:21:31;11.90;;;6.10;;
47796;SDS011;33558;50.922;14.068;2023-04-07T11:23:58;8.20;;;6.43;;
47796;SDS011;33558;50.922;14.068;2023-04-07T11:26:26;10.03;;;6.03;;
47796;SDS011;33558;50.922;14.068;2023-04-07T11:28:53;8.97;;;5.90;;
47796;SDS011;33558;50.922;14.068;2023-04-07T11:31:21;10.40;;;6.37;;
47796;SDS011;33558;50.922;14.068;2023-04-07T11:33:50;9.83;;;6.47;;
47796;SDS011;33558;50.922;14.068;2023-04-07T11:36:24;8.83;;;6.00;;
47796;SDS011;33558;50.922;14.068;2023-04-07T11:38:52;10.23;;;6.13;;
47796;SDS011;33558;50.922;14.068;2023-04-07T11:41:19;9.43;;;6.00;;
47796;SDS011;33558;50.922;14.068;2023-04-07T11:43:47;8.00;;;5.60;;
47796;SDS011;33558;50.922;14.068;2023-04-07T11:46:15;8.33;;;5.87;;
47796;SDS011;33558;50.922;14.068;2023-04-07T11:48:43;10.07;;;6.00;;
47796;SDS011;33558;50.922;14.068;2023-04-07T11:51:14;8.93;;;6.13;;
47796;SDS011;33558;50.922;14.068;2023-04-07T11:53:42;8.00;;;5.63;;
47796;SDS011;33558;50.922;14.068;2023-04-07T11:56:09;9.53;;;6.20;;
47796;SDS011;33558;50.922;14.068;2023-04-07T11:58:45;8.00;;;6.00;;
47796;SDS011;33558;50.922;14.068;2023-04-07T12:01:14;9.83;;;6.60;;
47796;SDS011;33558;50.922;14.068;2023-04-07T12:03:53;10.43;;;7.20;;
47796;SDS011;33558;50.922;14.068;2023-04-07T12:06:25;8.67;;;6.23;;
47796;SDS011;33558;50.922;14.068;2023-04-07T12:08:54;10.03;;;7.03;;
47796;SDS011;33558;50.922;14.068;2023-04-07T12:11:21;10.13;;;6.93;;
47796;SDS011;33558;50.922;14.068;2023-04-07T12:13:49;9.70;;;6.87;;
47796;SDS011;33558;50.922;14.068;2023-04-07T12:16:17;9.93;;;7.37;;
47796;SDS011;33558;50.922;14.068;2023-04-07T12:18:44;10.77;;;6.90;;
47796;SDS011;33558;50.922;14.068;2023-04-07T12:21:10;10.10;;;7.07;;
47796;SDS011;33558;50.922;14.068;2023-04-07T12:23:37;10.13;;;6.67;;
47796;SDS011;33558;50.922;14.068;2023-04-07T12:26:05;9.18;;;7.03;;
47796;SDS011;33558;50.922;14.068;2023-04-07T12:28:32;11.10;;;7.38;;
47796;SDS011;33558;50.922;14.068;2023-04-07T12:30:58;10.60;;;7.32;;
47796;SDS011;33558;50.922;14.068;2023-04-07T12:33:26;7.82;;;6.22;;
47796;SDS011;33558;50.922;14.068;2023-04-07T12:35:53;9.63;;;6.70;;
47796;SDS011;33558;50.922;14.068;2023-04-07T12:38:20;9.32;;;6.32;;
47796;SDS011;33558;50.922;14.068;2023-04-07T12:40:46;9.52;;;6.70;;
47796;SDS011;33558;50.922;14.068;2023-04-07T12:43:13;8.90;;;6.70;;
47796;SDS011;33558;50.922;14.068;2023-04-07T12:45:40;8.65;;;7.03;;
47796;SDS011;33558;50.922;14.068;2023-04-07T12:48:07;9.57;;;7.20;;
47796;SDS011;33558;50.922;14.068;2023-04-07T12:50:35;12.70;;;7.40;;
47796;SDS011;33558;50.922;14.068;2023-04-07T12:53:02;9.70;;;7.28;;
47796;SDS011;33558;50.922;14.068;2023-04-07T12:55:29;10.40;;;7.60;;
47796;SDS011;33558;50.922;14.068;2023-04-07T12:57:57;10.48;;;7.15;;
47796;SDS011;33558;50.922;14.068;2023-04-07T13:00:24;11.48;;;7.70;;
47796;SDS011;33558;50.922;14.068;2023-04-07T13:02:51;12.55;;;7.72;;
47796;SDS011;33558;50.922;14.068;2023-04-07T13:05:18;7.93;;;6.93;;
47796;SDS011;33558;50.922;14.068;2023-04-07T13:07:46;10.13;;;7.55;;
47796;SDS011;33558;50.922;14.068;2023-04-07T13:10:14;9.80;;;7.35;;
47796;SDS011;33558;50.922;14.068;2023-04-07T13:12:40;10.38;;;7.10;;
47796;SDS011;33558;50.922;14.068;2023-04-07T13:15:07;8.57;;;6.68;;
47796;SDS011;33558;50.922;14.068;2023-04-07T13:17:34;12.35;;;7.53;;
47796;SDS011;33558;50.922;14.068;2023-04-07T13:20:03;9.68;;;6.95;;
47796;SDS011;33558;50.922;14.068;2023-04-07T13:22:30;12.00;;;7.57;;
47796;SDS011;33558;50.922;14.068;2023-04-07T13:24:58;12.38;;;8.60;;
47796;SDS011;33558;50.922;14.068;2023-04-07T13:27:24;9.05;;;7.65;;
47796;SDS011;33558;50.922;14.068;2023-04-07T13:29:51;10.17;;;7.30;;
47796;SDS011;33558;50.922;14.068;2023-04-07T13:32:18;10.77;;;8.03;;
47796;SDS011;33558;50.922;14.068;2023-04-07T13:34:44;11.63;;;8.52;;
47796;SDS011;33558;50.922;14.068;2023-04-07T13:37:11;10.67;;;8.17;;
47796;SDS011;33558;50.922;14.068;2023-04-07T13:39:38;11.37;;;8.73;;
47796;SDS011;33558;50.922;14.068;2023-04-07T13:42:06;10.47;;;7.80;;
47796;SDS011;33558;50.922;14.068;2023-04-07T13:44:33;9.23;;;7.30;;
47796;SDS011;33558;50.922;14.068;2023-04-07T13:47:01;10.38;;;7.70;;
47796;SDS011;33558;50.922;14.068;2023-04-07T13:49:29;11.27;;;8.52;;
47796;SDS011;33558;50.922;14.068;2023-04-07T13:51:55;11.90;;;8.77;;
47796;SDS011;33558;50.922;14.068;2023-04-07T13:54:22;11.27;;;8.18;;
47796;SDS011;33558;50.922;14.068;2023-04-07T13:56:49;9.93;;;8.60;;
47796;SDS011;33558;50.922;14.068;2023-04-07T13:59:18;13.90;;;8.50;;
47796;SDS011;33558;50.922;14.068;2023-04-07T14:01:45;12.37;;;8.63;;
47796;SDS011;33558;50.922;14.068;2023-04-07T14:04:12;10.52;;;8.02;;
47796;SDS011;33558;50.922;14.068;2023-04-07T14:06:39;12.60;;;8.73;;
47796;SDS011;33558;50.922;14.068;2023-04-07T14:09:06;13.80;;;8.20;;
47796;SDS011;33558;50.922;14.068;2023-04-07T14:11:33;11.37;;;8.43;;
47796;SDS011;33558;50.922;14.068;2023-04-07T14:14:01;12.10;;;8.03;;
47796;SDS011;33558;50.922;14.068;2023-04-07T14:16:29;10.23;;;8.17;;
47796;SDS011;33558;50.922;14.068;2023-04-07T14:18:57;10.27;;;8.15;;
47796;SDS011;33558;50.922;14.068;2023-04-07T14:21:24;10.93;;;7.80;;
47796;SDS011;33558;50.922;14.068;2023-04-07T14:23:52;10.10;;;7.47;;
47796;SDS011;33558;50.922;14.068;2023-04-07T14:26:20;12.10;;;8.10;;
47796;SDS011;33558;50.922;14.068;2023-04-07T14:28:47;10.47;;;7.67;;
47796;SDS011;33558;50.922;14.068;2023-04-07T14:31:14;8.63;;;7.13;;
47796;SDS011;33558;50.922;14.068;2023-04-07T14:33:43;11.13;;;8.27;;
47796;SDS011;33558;50.922;14.068;2023-04-07T14:36:12;14.03;;;8.60;;
47796;SDS011;33558;50.922;14.068;2023-04-07T14:38:39;12.77;;;7.60;;
47796;SDS011;33558;50.922;14.068;2023-04-07T14:41:06;10.93;;;7.87;;
47796;SDS011;33558;50.922;14.068;2023-04-07T14:43:33;11.60;;;7.83;;
47796;SDS011;33558;50.922;14.068;2023-04-07T14:46:00;9.90;;;6.73;;
47796;SDS011;33558;50.922;14.068;2023-04-07T14:48:26;12.37;;;7.80;;